Monroe, LA

3:28 AM CDT on May 30, 2015 (GMT -0500)
Deborah Drive | | Change Station
CLOSE
Current Station
Personal Weather Station
Location: Monroe, LA
Elevation: 79 ft
Nearby Weather Stations

Elev 79 ft 32.55 °N, 92.09 °W | Updated 8 seconds ago

Overcast
Overcast
70.3 °F
Feels Like 70.3 °F
N
0.0
Wind Variable Wind from ESE
Gusts 0.0 mph

Today
High -- | Low -- °F
--% Chance of Precip.
Yesterday
High -- | Low -- °F
Precip. -- in
6:02 AM 8:09 PM
Waxing Gibbous, 89% visible
Pressure 30.01 in
Visibility 10.0 miles
Clouds Scattered Clouds 1900 ft
Dew Point 69 °F
Humidity 97%
Rainfall 0.00 in
Snow Depth Not available.
UV 0.0 out of 12
Pollen 5.30 out of 12
Air Quality Not available.
Flu Activity Sporadic
SPECI KMLU 300812Z AUTO 19003KT 10SM SCT019 21/21 A3001 RMK AO2 T02110206

More Conditions Fewer Conditions

Pressure 30.01 in
Visibility 10.0 miles
Clouds Scattered Clouds 1900 ft
Dew Point 69 °F
Humidity 97%
Rainfall 0.00 in
Snow Depth Not available.
UV 0.0 out of 12
Pollen 5.30 out of 12
Air Quality Not available.
Flu Activity Sporadic
SPECI KMLU 300812Z AUTO 19003KT 10SM SCT019 21/21 A3001 RMK AO2 T02110206

More Conditions Fewer Conditions

Nowcast | as of 3:03 am CDT on May 30, 2015

Light isolated showers will continue to pop up and diminish over southeast Oklahoma...south Arkansas...north Louisiana and northeast Texas...as a weak upper disturbance over AR moves eastward. Also...an approaching cold front over OK is going to increase coverage of showers and perhaps isolated thunderstorms before sunrise. However...over the next couple of hours...rainfall amounts will average only a couple hundredths of an inch.

×

10-Day Weather Forecast

Almanac

Astronomy

May. 30, 2015 Rise Set
Actual Time
Civil Twilight
Nautical Twilight
Astronomical Twilight
Moon
Length of Visible Light
Length of Day
Tomorrow will be .
, % of the Moon is Illuminated

Today's Extremes

State Highs State Lows

Community

WunderPhotos

Upload Photos

1,825,472 photos uploaded!

WunderBlogs® & News

Nearby

Air Quality

  Air Quality AQ Index Pollutant
Not available.

Snow Depth

Station Depth Elevation

Earthquake Activity

City Distance Mag. Time & Date
Minimum magnitude displayed is 2.5.

Coastal Water Temperatures

Place Temperature

Stations

Nearby Weather Stations

Station Location Temp. Windchill Dew Point Humidity Wind Precip. Elev Updated Type